Mission Field Livingston US
ICAO: KLVM
IATA: LVM
Category: Medium
Scheduled Services: No

Elevation: 4660 ft
TransAlt. 18000 ft.

Airport Communications:
ASOS:135.275
GREAT FALLS RDO:122.2
CTAF/UNICOM:123

KLVM Zoom In..

If you have problems with the map follow the link
https://www.worldairports.se/pages/airport.php?
ICAO=KLVM

Runways:

(A) RW 04 length 5701 ft width 75 ft
---- / hdg 39

(B) RW 08 length 3762 ft width 125 ft
---- / hdg 78

(C) RW 13 length 2724 ft width 120 ft
---- / hdg 132

(D) RW 22 length 5701 ft width 75 ft
---- / hdg 219

(E) RW 26 length 3762 ft width 125 ft
---- / hdg 258

(F) RW 31 length 2724 ft width 120 ft
---- / hdg 312

Location; KLVM
Day. 21 / Time. 06.53 Zulu
* Altimeter: 30.15
* Temperature: 06° c. 42.8°f.
* Wind from: 320° Speed 15 kn.
Dewpoint: 00° c.
Visibility: 10 Statute Miles.
Clouds: Clear (automated report).

KLVM 210653Z AUTO 32015KT 10SM CLR 06/00 A3015 RMK AO2 SLP189 T00560000 402391011 $


Wind From 320°
Speed 15 kn.

 
 
jpsmedia.com for Web Design worldairports.se 2018   terms of use